createdAt,value
2018-09-30T00:00:16.782Z,53.35
2018-09-30T00:00:47.908Z,53.38
2018-09-30T00:01:19.043Z,53.94
2018-09-30T00:01:50.194Z,54.69
2018-09-30T00:02:21.368Z,54.12
2018-09-30T00:02:52.492Z,54.25
2018-09-30T00:03:23.591Z,53.92
2018-09-30T00:03:54.705Z,54.25
2018-09-30T00:04:25.804Z,54.15
2018-09-30T00:04:56.914Z,54.30
2018-09-30T00:05:28.045Z,54.54
2018-09-30T00:05:59.166Z,54.08
2018-09-30T00:06:30.317Z,53.69
2018-09-30T00:07:01.432Z,53.86
2018-09-30T00:07:32.605Z,53.58
2018-09-30T00:08:03.731Z,53.56
2018-09-30T00:08:34.834Z,53.48
2018-09-30T00:09:05.952Z,53.42
2018-09-30T00:09:37.101Z,53.91
2018-09-30T00:10:08.243Z,54.19
2018-09-30T00:10:39.376Z,53.97
2018-09-30T00:11:10.526Z,53.94
2018-09-30T00:11:41.624Z,54.18
2018-09-30T00:12:12.737Z,53.50
2018-09-30T00:12:43.874Z,53.78
2018-09-30T00:13:14.983Z,53.43
2018-09-30T00:13:46.109Z,53.30
2018-09-30T00:14:17.270Z,53.25
2018-09-30T00:14:48.375Z,53.81
2018-09-30T00:15:19.481Z,53.30
2018-09-30T00:15:50.588Z,53.63
2018-09-30T00:16:21.695Z,53.17
2018-09-30T00:16:52.830Z,53.56
2018-09-30T00:17:23.993Z,53.42
2018-09-30T00:17:55.147Z,53.78
2018-09-30T00:18:26.295Z,53.82
2018-09-30T00:18:57.415Z,53.71
2018-09-30T00:19:28.576Z,53.59
2018-09-30T00:19:59.659Z,53.38
2018-09-30T00:20:30.750Z,53.50
2018-09-30T00:21:01.866Z,53.33
2018-09-30T00:21:32.984Z,53.75
2018-09-30T00:22:04.096Z,53.24
2018-09-30T00:22:35.230Z,53.49
2018-09-30T00:23:06.402Z,53.91
2018-09-30T00:23:37.504Z,53.89
2018-09-30T00:24:08.618Z,53.72
2018-09-30T00:24:39.724Z,53.31
2018-09-30T00:25:10.826Z,53.84
2018-09-30T00:25:41.933Z,53.75
2018-09-30T00:26:13.080Z,53.91
2018-09-30T00:26:44.197Z,53.50
2018-09-30T00:27:15.312Z,53.67
2018-09-30T00:27:46.474Z,53.63
2018-09-30T00:28:17.622Z,53.48
2018-09-30T00:28:48.759Z,54.23
2018-09-30T00:29:19.861Z,53.72
2018-09-30T00:29:50.978Z,53.66
2018-09-30T00:30:22.077Z,53.21
2018-09-30T00:30:53.188Z,53.80
2018-09-30T00:31:24.299Z,53.59
2018-09-30T00:31:55.439Z,54.03
2018-09-30T00:32:26.549Z,53.92
2018-09-30T00:32:57.651Z,54.41
2018-09-30T00:33:28.798Z,54.76
2018-09-30T00:33:59.902Z,54.25
2018-09-30T00:34:31.012Z,53.92
2018-09-30T00:35:02.143Z,54.30
2018-09-30T00:35:33.244Z,54.30
2018-09-30T00:36:04.400Z,54.36
2018-09-30T00:36:35.518Z,55.03
2018-09-30T00:37:06.699Z,54.71
2018-09-30T00:37:37.832Z,54.58
2018-09-30T00:38:08.929Z,55.30
2018-09-30T00:38:40.035Z,54.55
2018-09-30T00:39:11.140Z,54.71
2018-09-30T00:39:42.242Z,54.95
2018-09-30T00:40:13.338Z,54.59
2018-09-30T00:40:44.463Z,54.66
2018-09-30T00:41:15.562Z,54.83
2018-09-30T00:41:46.678Z,55.05
2018-09-30T00:42:17.860Z,54.73
2018-09-30T00:42:49.012Z,55.42
2018-09-30T00:43:20.168Z,55.46
2018-09-30T00:43:51.300Z,54.83
2018-09-30T00:44:22.397Z,54.47
2018-09-30T00:44:53.504Z,55.08
2018-09-30T00:45:24.606Z,54.93
2018-09-30T00:45:55.743Z,55.00
2018-09-30T00:46:26.871Z,54.74
2018-09-30T00:46:58.017Z,54.47
2018-09-30T00:47:29.163Z,54.38
2018-09-30T00:48:00.302Z,54.17
2018-09-30T00:48:31.439Z,54.41
2018-09-30T00:49:02.594Z,54.54
2018-09-30T00:49:33.716Z,54.20
2018-09-30T00:50:04.818Z,54.29
2018-09-30T00:50:35.910Z,54.53
2018-09-30T00:51:07.017Z,55.13
2018-09-30T00:51:38.125Z,54.28
2018-09-30T00:52:09.238Z,55.16
2018-09-30T00:52:40.354Z,54.52
2018-09-30T00:53:11.455Z,54.17
2018-09-30T00:53:42.569Z,54.16
2018-09-30T00:54:13.710Z,54.17
2018-09-30T00:54:44.817Z,53.60
2018-09-30T00:55:15.957Z,53.51
2018-09-30T00:55:47.117Z,54.30
2018-09-30T00:56:18.287Z,53.87
2018-09-30T00:56:49.389Z,54.56
2018-09-30T00:57:20.528Z,55.26
2018-09-30T00:57:51.629Z,54.91
2018-09-30T00:58:22.753Z,55.00
2018-09-30T00:58:53.857Z,55.03
2018-09-30T00:59:24.952Z,55.16
2018-09-30T00:59:56.116Z,54.79
2018-09-30T01:00:27.267Z,54.41
2018-09-30T01:00:58.398Z,54.36
2018-09-30T01:01:29.514Z,53.71
2018-09-30T01:02:00.622Z,53.79
2018-09-30T01:02:31.751Z,53.77
2018-09-30T01:03:02.887Z,54.42
2018-09-30T01:03:34.032Z,54.25
2018-09-30T01:04:05.142Z,54.35
2018-09-30T01:04:36.294Z,54.11
2018-09-30T01:05:07.433Z,54.19
2018-09-30T01:05:38.528Z,53.97
2018-09-30T01:06:09.658Z,53.42
2018-09-30T01:06:40.784Z,53.75
2018-09-30T01:07:11.890Z,53.79
2018-09-30T01:07:43.042Z,53.57
2018-09-30T01:08:14.138Z,53.38
2018-09-30T01:08:45.268Z,53.40
2018-09-30T01:09:16.379Z,53.21
2018-09-30T01:09:47.513Z,52.78
2018-09-30T01:10:18.670Z,52.97
2018-09-30T01:10:49.774Z,53.07
2018-09-30T01:11:20.941Z,52.54
2018-09-30T01:11:52.049Z,52.92
2018-09-30T01:12:23.158Z,52.98
2018-09-30T01:12:54.291Z,53.06
2018-09-30T01:13:25.400Z,52.48
2018-09-30T01:13:56.502Z,52.69
2018-09-30T01:14:27.603Z,52.12
2018-09-30T01:14:58.732Z,52.46
2018-09-30T01:15:29.850Z,52.09
2018-09-30T01:16:00.966Z,52.74
2018-09-30T01:16:32.166Z,52.18
2018-09-30T01:17:03.314Z,52.27
2018-09-30T01:17:34.421Z,53.02
2018-09-30T01:18:05.516Z,52.76
2018-09-30T01:18:36.648Z,52.83
2018-09-30T01:19:07.763Z,52.98
2018-09-30T01:19:38.879Z,53.77
2018-09-30T01:20:09.999Z,54.25
2018-09-30T01:20:41.108Z,54.19
2018-09-30T01:21:12.219Z,54.34
2018-09-30T01:21:43.379Z,54.10
2018-09-30T01:22:14.502Z,54.39
2018-09-30T01:22:45.608Z,54.72
2018-09-30T01:23:16.740Z,54.66
2018-09-30T01:23:47.881Z,53.89
2018-09-30T01:24:19.004Z,54.79
2018-09-30T01:24:50.110Z,55.01
2018-09-30T01:25:21.206Z,54.29
2018-09-30T01:25:52.338Z,54.40
2018-09-30T01:26:23.446Z,55.43
2018-09-30T01:26:54.619Z,55.46
2018-09-30T01:27:25.747Z,55.08
2018-09-30T01:27:56.845Z,54.77
2018-09-30T01:28:27.953Z,55.55
2018-09-30T01:28:59.053Z,54.93
2018-09-30T01:29:30.170Z,55.20
2018-09-30T01:30:01.301Z,55.23
2018-09-30T01:30:32.412Z,55.22
2018-09-30T01:31:03.522Z,56.15
2018-09-30T01:31:34.630Z,55.42
2018-09-30T01:32:05.826Z,55.92
2018-09-30T01:32:36.955Z,55.68
2018-09-30T01:33:08.055Z,56.05
2018-09-30T01:33:39.153Z,56.26
2018-09-30T01:34:10.293Z,56.79
2018-09-30T01:34:41.415Z,56.80
2018-09-30T01:35:12.544Z,57.43
2018-09-30T01:35:43.647Z,56.86
2018-09-30T01:36:14.779Z,57.64
2018-09-30T01:36:45.874Z,57.38
2018-09-30T01:37:17.041Z,57.14
2018-09-30T01:37:48.155Z,57.94
2018-09-30T01:38:19.338Z,57.45
2018-09-30T01:38:50.424Z,57.88
2018-09-30T01:39:21.537Z,57.62
2018-09-30T01:39:52.711Z,58.09
2018-09-30T01:40:23.817Z,58.15
2018-09-30T01:40:54.934Z,58.45
2018-09-30T01:41:26.053Z,58.91
2018-09-30T01:41:57.166Z,59.07
2018-09-30T01:42:28.323Z,59.19
2018-09-30T01:42:59.437Z,59.00
2018-09-30T01:43:30.572Z,59.13
2018-09-30T01:44:01.677Z,59.09
2018-09-30T01:44:32.777Z,59.39
2018-09-30T01:45:03.879Z,59.49
2018-09-30T01:45:34.977Z,59.52
2018-09-30T01:46:06.131Z,59.30
2018-09-30T01:46:37.242Z,60.08
2018-09-30T01:47:08.351Z,60.28
2018-09-30T01:48:16.869Z,60.99
2018-09-30T01:48:47.988Z,61.00
2018-09-30T01:49:19.085Z,60.91
2018-09-30T01:49:50.195Z,60.97
2018-09-30T01:50:21.305Z,60.73
2018-09-30T01:50:52.444Z,60.78
2018-09-30T01:51:23.589Z,60.38
2018-09-30T01:51:54.690Z,60.51
2018-09-30T01:52:25.862Z,61.94
2018-09-30T01:52:57.035Z,60.83
2018-09-30T01:53:28.149Z,60.80
2018-09-30T01:53:59.289Z,60.61
2018-09-30T01:54:30.420Z,61.42
2018-09-30T01:55:01.526Z,62.04
2018-09-30T01:55:32.658Z,62.70
2018-09-30T01:56:03.766Z,62.51
2018-09-30T01:56:34.884Z,63.12
2018-09-30T01:57:05.988Z,63.64
2018-09-30T01:57:37.097Z,63.62
2018-09-30T01:58:08.269Z,63.26
2018-09-30T01:58:39.422Z,63.82
2018-09-30T01:59:10.525Z,63.80
2018-09-30T01:59:41.628Z,63.17
2018-09-30T02:00:12.738Z,63.84
2018-09-30T02:00:43.898Z,63.82
2018-09-30T02:01:15.039Z,64.34
2018-09-30T02:01:46.163Z,64.79
2018-09-30T02:02:17.302Z,63.40
2018-09-30T02:02:48.420Z,63.76
2018-09-30T02:03:19.526Z,64.59
2018-09-30T02:03:50.638Z,64.67
2018-09-30T02:04:21.755Z,64.13
2018-09-30T02:04:52.883Z,65.47
2018-09-30T02:05:23.983Z,65.51
2018-09-30T02:05:55.145Z,65.76
2018-09-30T02:06:26.258Z,66.14
2018-09-30T02:06:57.362Z,66.15
2018-09-30T02:07:28.478Z,66.00
2018-09-30T02:07:59.588Z,65.84
2018-09-30T02:08:30.699Z,65.59
2018-09-30T02:09:01.844Z,66.65
2018-09-30T02:09:32.944Z,66.59
2018-09-30T02:10:04.037Z,66.44
2018-09-30T02:10:35.164Z,66.20
2018-09-30T02:11:06.282Z,66.51
2018-09-30T02:11:37.398Z,66.75
2018-09-30T02:12:08.505Z,67.01
2018-09-30T02:12:39.632Z,66.40
2018-09-30T02:13:10.733Z,67.16
2018-09-30T02:13:41.855Z,67.62
2018-09-30T02:14:13.011Z,68.32
2018-09-30T02:14:44.110Z,68.27
2018-09-30T02:15:15.265Z,68.33
2018-09-30T02:15:46.376Z,68.20
2018-09-30T02:16:17.521Z,68.27
2018-09-30T02:16:48.649Z,67.96
2018-09-30T02:17:19.764Z,68.17
2018-09-30T02:17:50.858Z,68.76
2018-09-30T02:18:22.007Z,69.36
2018-09-30T02:18:53.122Z,68.96
2018-09-30T02:19:24.238Z,68.90
2018-09-30T02:19:55.358Z,68.19
2018-09-30T02:20:26.481Z,68.81
2018-09-30T02:20:57.617Z,68.97
2018-09-30T02:21:28.721Z,69.46
2018-09-30T02:21:59.826Z,68.21
2018-09-30T02:22:30.931Z,68.46
2018-09-30T02:23:02.029Z,68.78
2018-09-30T02:23:33.178Z,69.01
2018-09-30T02:24:04.286Z,69.54
2018-09-30T02:24:35.406Z,68.86
2018-09-30T02:25:06.530Z,69.85
2018-09-30T02:25:37.673Z,69.92
2018-09-30T02:26:08.791Z,69.12
2018-09-30T02:26:39.933Z,68.77
2018-09-30T02:27:11.082Z,68.59
2018-09-30T02:27:42.191Z,69.61
2018-09-30T02:28:13.289Z,69.54
2018-09-30T02:28:44.394Z,68.98
2018-09-30T02:29:15.493Z,69.23
2018-09-30T02:29:46.617Z,68.61
2018-09-30T02:30:17.750Z,69.16
2018-09-30T02:30:48.875Z,69.17
2018-09-30T02:31:20.027Z,68.79
2018-09-30T02:31:51.134Z,68.76
2018-09-30T02:32:22.316Z,68.74
2018-09-30T02:32:53.447Z,69.54
2018-09-30T02:33:24.564Z,67.88
2018-09-30T02:33:55.670Z,67.31
2018-09-30T02:34:26.785Z,68.04
2018-09-30T02:34:57.898Z,67.77
2018-09-30T02:35:29.016Z,67.41
2018-09-30T02:36:00.131Z,67.36
2018-09-30T02:36:31.288Z,66.97
2018-09-30T02:37:02.397Z,67.33
2018-09-30T02:37:33.542Z,67.41
2018-09-30T02:38:04.655Z,67.52
2018-09-30T02:38:35.768Z,67.94
2018-09-30T02:39:06.867Z,69.14
2018-09-30T02:39:37.971Z,69.57
2018-09-30T02:40:09.080Z,70.12
2018-09-30T02:40:40.192Z,70.04
2018-09-30T02:41:11.300Z,69.68
2018-09-30T02:41:42.563Z,68.90
2018-09-30T02:42:13.677Z,68.33
2018-09-30T02:42:44.785Z,68.02
2018-09-30T02:43:15.890Z,67.91
2018-09-30T02:43:47.052Z,68.27
2018-09-30T02:44:18.159Z,68.86
2018-09-30T02:44:49.260Z,69.72
2018-09-30T02:45:20.373Z,69.37
2018-09-30T02:45:51.489Z,69.41
2018-09-30T02:46:22.638Z,69.35
2018-09-30T02:46:53.786Z,69.67
2018-09-30T02:47:24.895Z,68.79
2018-09-30T02:47:56.004Z,69.49
2018-09-30T02:48:27.123Z,68.34
2018-09-30T02:48:58.246Z,68.56
2018-09-30T02:49:29.346Z,68.18
2018-09-30T02:50:00.450Z,68.39
2018-09-30T02:50:31.560Z,68.85
2018-09-30T02:51:02.697Z,68.68
2018-09-30T02:51:33.835Z,68.54
2018-09-30T02:52:04.990Z,69.19
2018-09-30T02:52:36.096Z,69.95
2018-09-30T02:53:07.200Z,70.33
2018-09-30T02:53:38.300Z,70.44
2018-09-30T02:54:09.426Z,70.13
2018-09-30T02:54:40.517Z,70.25
2018-09-30T02:55:11.663Z,70.36
2018-09-30T02:55:42.774Z,69.89
2018-09-30T02:56:13.910Z,70.51
2018-09-30T02:56:45.033Z,70.03
2018-09-30T02:57:16.154Z,71.21
2018-09-30T02:57:47.318Z,70.63
2018-09-30T02:58:18.427Z,70.65
2018-09-30T02:58:49.553Z,71.45
2018-09-30T02:59:20.662Z,72.03
2018-09-30T02:59:51.767Z,72.18
2018-09-30T03:00:22.859Z,71.97
2018-09-30T03:00:53.998Z,72.20
2018-09-30T03:01:25.127Z,72.79
2018-09-30T03:01:56.265Z,72.47
2018-09-30T03:02:27.365Z,73.28
2018-09-30T03:02:58.472Z,72.59
2018-09-30T03:03:29.591Z,73.10
2018-09-30T03:04:00.746Z,72.81
2018-09-30T03:04:31.860Z,73.23
2018-09-30T03:05:02.987Z,72.78
2018-09-30T03:05:34.135Z,71.74
2018-09-30T03:06:05.275Z,72.20
2018-09-30T03:06:36.388Z,73.08
2018-09-30T03:07:07.510Z,72.93
2018-09-30T03:07:38.622Z,71.99
2018-09-30T03:08:09.730Z,72.98
2018-09-30T03:08:40.889Z,72.65
2018-09-30T03:09:11.985Z,73.26
2018-09-30T03:09:43.104Z,71.22
2018-09-30T03:10:14.242Z,73.03
2018-09-30T03:10:45.349Z,72.27
2018-09-30T03:11:16.457Z,72.84
2018-09-30T03:11:47.572Z,72.70
2018-09-30T03:12:18.678Z,72.96
2018-09-30T03:12:49.799Z,72.28
2018-09-30T03:13:20.895Z,71.91
2018-09-30T03:13:52.035Z,72.33
2018-09-30T03:14:23.145Z,72.47
2018-09-30T03:14:54.264Z,73.30
2018-09-30T03:15:25.428Z,72.32
2018-09-30T03:15:56.536Z,72.55
2018-09-30T03:16:27.657Z,73.74
2018-09-30T03:16:58.792Z,73.77
2018-09-30T03:17:29.895Z,73.83
2018-09-30T03:18:01.091Z,73.55
2018-09-30T03:18:32.207Z,73.13
2018-09-30T03:19:03.380Z,72.85
2018-09-30T03:19:34.541Z,73.31
2018-09-30T03:20:05.653Z,73.77
2018-09-30T03:20:36.757Z,73.16
2018-09-30T03:21:07.897Z,73.88
2018-09-30T03:21:39.038Z,73.56
2018-09-30T03:22:10.174Z,72.80
2018-09-30T03:22:41.282Z,73.52
2018-09-30T03:23:12.378Z,74.29
2018-09-30T03:23:43.487Z,73.75
2018-09-30T03:24:14.615Z,73.95
2018-09-30T03:24:45.722Z,73.20
2018-09-30T03:25:16.825Z,74.06
2018-09-30T03:25:47.920Z,73.97
2018-09-30T03:26:19.018Z,73.88
2018-09-30T03:26:50.117Z,74.13
2018-09-30T03:27:21.224Z,73.36
2018-09-30T03:27:52.321Z,74.68
2018-09-30T03:28:23.422Z,74.72
2018-09-30T03:28:54.526Z,75.13
2018-09-30T03:29:25.679Z,74.87
2018-09-30T03:29:56.823Z,75.34
2018-09-30T03:30:27.930Z,74.93
2018-09-30T03:30:59.046Z,75.19
2018-09-30T03:31:30.163Z,75.32
2018-09-30T03:32:01.281Z,74.92
2018-09-30T03:32:32.418Z,75.32
2018-09-30T03:33:03.543Z,75.72
2018-09-30T03:33:34.659Z,75.25
2018-09-30T03:34:05.801Z,75.33
2018-09-30T03:34:36.937Z,75.67
2018-09-30T03:35:08.033Z,75.69
2018-09-30T03:35:39.188Z,76.59
2018-09-30T03:36:10.296Z,76.46
2018-09-30T03:36:41.429Z,76.84
2018-09-30T03:37:12.535Z,76.55
2018-09-30T03:37:43.638Z,76.46
2018-09-30T03:38:14.791Z,76.34
2018-09-30T03:38:45.917Z,76.85
2018-09-30T03:39:17.022Z,77.14
2018-09-30T03:39:48.121Z,77.41
2018-09-30T03:40:19.222Z,77.51
2018-09-30T03:40:50.326Z,77.02
2018-09-30T03:41:21.426Z,76.69
2018-09-30T03:41:52.602Z,77.08
2018-09-30T03:42:23.737Z,77.06
2018-09-30T03:42:54.840Z,77.83
2018-09-30T03:43:26.017Z,77.31
2018-09-30T03:43:57.132Z,77.58
2018-09-30T03:44:28.245Z,77.07
2018-09-30T03:44:59.346Z,77.93
2018-09-30T03:45:30.442Z,77.65
2018-09-30T03:46:01.570Z,78.01
2018-09-30T03:46:32.674Z,77.37
2018-09-30T03:47:03.773Z,77.25
2018-09-30T03:47:34.894Z,77.54
2018-09-30T03:48:05.989Z,76.79
2018-09-30T03:48:37.134Z,76.99
2018-09-30T03:49:08.254Z,76.90
2018-09-30T03:49:39.383Z,77.27
2018-09-30T03:50:10.500Z,77.20
2018-09-30T03:50:41.639Z,77.59
2018-09-30T03:51:12.790Z,77.35
2018-09-30T03:51:43.906Z,77.74
2018-09-30T03:52:15.055Z,77.93
2018-09-30T03:52:46.180Z,77.77
2018-09-30T03:53:17.295Z,77.99
2018-09-30T03:53:48.431Z,77.79
2018-09-30T03:54:19.536Z,77.76
2018-09-30T03:54:50.652Z,78.30
2018-09-30T03:55:21.797Z,78.43
2018-09-30T03:55:52.989Z,77.92
2018-09-30T03:56:24.133Z,78.25
2018-09-30T03:56:55.241Z,78.37
2018-09-30T03:57:26.342Z,78.69
2018-09-30T03:57:57.441Z,77.93
2018-09-30T03:58:28.570Z,78.52
2018-09-30T03:58:59.726Z,78.67
2018-09-30T03:59:30.855Z,77.84
2018-09-30T04:00:01.961Z,77.67
2018-09-30T04:00:33.079Z,77.96
2018-09-30T04:01:04.255Z,77.93
2018-09-30T04:01:35.370Z,78.47
2018-09-30T04:02:06.530Z,78.86
2018-09-30T04:02:37.674Z,78.36
2018-09-30T04:03:08.794Z,78.19
2018-09-30T04:03:39.894Z,78.07
2018-09-30T04:04:11.049Z,78.16
2018-09-30T04:04:42.185Z,78.17
2018-09-30T04:05:13.312Z,78.31
2018-09-30T04:05:44.467Z,78.36
2018-09-30T04:06:15.623Z,78.05
2018-09-30T04:06:46.777Z,78.35
2018-09-30T04:07:17.901Z,77.65
2018-09-30T04:07:49.017Z,78.15
2018-09-30T04:08:20.123Z,77.88
2018-09-30T04:08:51.232Z,77.92
2018-09-30T04:09:22.387Z,78.42
2018-09-30T04:09:53.565Z,78.18
2018-09-30T04:10:24.649Z,78.68
2018-09-30T04:10:55.783Z,77.55
2018-09-30T04:11:26.963Z,77.42
2018-09-30T04:11:58.068Z,78.05
2018-09-30T04:12:29.178Z,77.86
2018-09-30T04:13:00.290Z,78.53
2018-09-30T04:13:31.390Z,78.59
2018-09-30T04:14:02.515Z,78.54
2018-09-30T04:14:33.644Z,78.64
2018-09-30T04:15:04.778Z,78.11
2018-09-30T04:15:35.896Z,78.41
2018-09-30T04:16:07.002Z,78.05
2018-09-30T04:16:38.182Z,78.59
2018-09-30T04:17:09.371Z,78.58
2018-09-30T04:17:40.429Z,78.14
2018-09-30T04:18:11.586Z,77.86
2018-09-30T04:18:42.755Z,78.09
2018-09-30T04:19:13.885Z,78.71
2018-09-30T04:19:44.999Z,78.56
2018-09-30T04:20:16.121Z,78.44
2018-09-30T04:20:47.228Z,78.26
2018-09-30T04:21:18.333Z,78.02
2018-09-30T04:21:49.516Z,77.63
2018-09-30T04:22:20.615Z,77.59
2018-09-30T04:22:51.726Z,77.87
2018-09-30T04:23:22.828Z,77.10
2018-09-30T04:23:53.982Z,77.28
2018-09-30T04:24:25.117Z,77.52
2018-09-30T04:24:56.248Z,77.55
2018-09-30T04:25:27.382Z,77.19
2018-09-30T04:25:58.484Z,77.26
2018-09-30T04:26:29.616Z,77.52
2018-09-30T04:27:00.774Z,76.47
2018-09-30T04:27:31.928Z,76.44
2018-09-30T04:28:03.069Z,76.25
2018-09-30T04:28:34.203Z,77.03
2018-09-30T04:29:05.312Z,77.27
2018-09-30T04:29:36.425Z,76.55
2018-09-30T04:30:07.526Z,76.89
2018-09-30T04:30:38.639Z,77.14
2018-09-30T04:31:09.782Z,76.60
2018-09-30T04:31:40.889Z,76.77
2018-09-30T04:32:12.036Z,77.42
2018-09-30T04:32:43.143Z,77.58
2018-09-30T04:33:14.271Z,77.41
2018-09-30T04:33:45.380Z,77.59
2018-09-30T04:34:16.527Z,77.87
2018-09-30T04:34:47.640Z,77.25
2018-09-30T04:35:18.785Z,76.83
2018-09-30T04:35:49.925Z,76.84
2018-09-30T04:36:21.071Z,76.12
2018-09-30T04:36:52.196Z,76.08
2018-09-30T04:37:23.350Z,76.33
2018-09-30T04:37:54.498Z,76.78
2018-09-30T04:38:25.622Z,76.97
2018-09-30T04:38:56.756Z,76.95
2018-09-30T04:39:27.875Z,77.25
2018-09-30T04:39:58.983Z,76.91
2018-09-30T04:40:30.088Z,76.98
2018-09-30T04:41:01.182Z,76.81
2018-09-30T04:41:32.370Z,77.69
2018-09-30T04:42:03.462Z,77.64
2018-09-30T04:42:34.579Z,78.28
2018-09-30T04:43:05.765Z,76.99
2018-09-30T04:43:36.894Z,76.49
2018-09-30T04:44:07.992Z,77.39
2018-09-30T04:44:39.121Z,77.07
2018-09-30T04:45:10.238Z,77.18
2018-09-30T04:45:41.346Z,77.08
2018-09-30T04:46:12.450Z,77.49
2018-09-30T04:46:43.605Z,77.36
2018-09-30T04:47:14.737Z,77.97
2018-09-30T04:47:45.874Z,77.34
2018-09-30T04:48:16.977Z,77.49
2018-09-30T04:48:48.086Z,77.76
2018-09-30T04:49:19.234Z,77.64
2018-09-30T04:49:50.386Z,77.38
2018-09-30T04:50:21.486Z,77.65
2018-09-30T04:50:52.611Z,77.96
2018-09-30T04:51:23.756Z,77.55
2018-09-30T04:51:54.857Z,77.31
2018-09-30T04:52:25.962Z,77.02
2018-09-30T04:52:57.063Z,77.79
2018-09-30T04:53:28.206Z,77.44
2018-09-30T04:53:59.312Z,77.65
2018-09-30T04:54:30.441Z,77.53
2018-09-30T04:55:01.541Z,77.95
2018-09-30T04:55:32.641Z,77.05
2018-09-30T04:56:03.753Z,77.28
2018-09-30T04:56:34.875Z,77.58
2018-09-30T04:57:06.025Z,77.03
2018-09-30T04:57:37.178Z,77.05
2018-09-30T04:58:08.287Z,77.27
2018-09-30T04:58:39.445Z,77.54
2018-09-30T04:59:10.551Z,77.81
2018-09-30T04:59:41.652Z,77.80
2018-09-30T05:00:12.742Z,77.52
2018-09-30T05:00:43.842Z,77.98
2018-09-30T05:01:14.941Z,77.61
2018-09-30T05:01:46.043Z,78.12
2018-09-30T05:02:17.144Z,78.48
2018-09-30T05:02:48.275Z,78.56
2018-09-30T05:03:19.373Z,78.63
2018-09-30T05:03:50.545Z,78.95
2018-09-30T05:04:21.667Z,78.60
2018-09-30T05:04:52.816Z,78.37
2018-09-30T05:05:23.949Z,78.11
2018-09-30T05:05:55.075Z,78.23
2018-09-30T05:06:26.193Z,78.04
2018-09-30T05:06:57.298Z,78.69
2018-09-30T05:07:28.426Z,78.51
2018-09-30T05:07:59.547Z,78.42
2018-09-30T05:08:30.726Z,78.42
2018-09-30T05:09:01.887Z,78.10
2018-09-30T05:09:33.036Z,78.25
2018-09-30T05:10:04.179Z,78.23
2018-09-30T05:10:35.312Z,78.11
2018-09-30T05:11:06.471Z,78.10
2018-09-30T05:11:37.582Z,77.68
2018-09-30T05:12:08.686Z,78.29
2018-09-30T05:12:39.810Z,77.88
2018-09-30T05:13:10.908Z,77.79
2018-09-30T05:13:42.064Z,77.33
2018-09-30T05:14:13.194Z,77.76
2018-09-30T05:14:44.335Z,77.64
2018-09-30T05:15:15.434Z,78.09
2018-09-30T05:15:46.531Z,78.00
2018-09-30T05:16:17.697Z,78.02
2018-09-30T05:16:48.817Z,78.27
2018-09-30T05:17:19.947Z,78.73
2018-09-30T05:17:51.083Z,78.41
2018-09-30T05:18:22.186Z,78.33
2018-09-30T05:18:53.322Z,78.39
2018-09-30T05:19:24.449Z,78.34
2018-09-30T05:19:55.566Z,78.10
2018-09-30T05:20:26.697Z,78.29
2018-09-30T05:20:57.827Z,78.12
2018-09-30T05:21:28.946Z,77.88
2018-09-30T05:22:00.836Z,78.01
2018-09-30T05:22:31.946Z,78.51
2018-09-30T05:23:03.056Z,78.55
2018-09-30T05:23:34.176Z,78.51
2018-09-30T05:24:05.324Z,79.24
2018-09-30T05:24:36.422Z,78.72
2018-09-30T05:25:07.529Z,79.24
2018-09-30T05:25:38.679Z,78.89
2018-09-30T05:26:09.809Z,79.22
2018-09-30T05:26:40.936Z,78.96
2018-09-30T05:27:12.067Z,78.82
2018-09-30T05:27:43.185Z,78.83
2018-09-30T05:28:14.302Z,79.03
2018-09-30T05:28:45.415Z,79.01
2018-09-30T05:29:16.550Z,79.80
2018-09-30T05:29:47.699Z,79.37
2018-09-30T05:30:18.839Z,79.72
2018-09-30T05:30:50.003Z,80.14
2018-09-30T05:31:21.181Z,80.10
2018-09-30T05:31:52.221Z,80.05
2018-09-30T05:32:23.356Z,80.07
2018-09-30T05:32:54.486Z,79.73
2018-09-30T05:33:25.684Z,80.03
2018-09-30T05:33:56.814Z,79.82
2018-09-30T05:34:27.941Z,79.85
2018-09-30T05:34:59.190Z,80.19
2018-09-30T05:35:30.351Z,80.83
2018-09-30T05:36:01.474Z,80.78
2018-09-30T05:36:32.635Z,80.70
2018-09-30T05:37:03.789Z,81.13
2018-09-30T05:37:34.881Z,81.32
2018-09-30T05:38:05.999Z,80.92
2018-09-30T05:38:37.105Z,80.68
2018-09-30T05:39:08.201Z,81.63
2018-09-30T05:39:39.413Z,80.90
2018-09-30T05:40:10.601Z,81.41
2018-09-30T05:40:41.761Z,81.08
2018-09-30T05:41:12.881Z,81.38
2018-09-30T05:41:44.036Z,80.93
2018-09-30T05:42:15.155Z,81.10
2018-09-30T05:42:46.258Z,80.75
2018-09-30T05:43:17.377Z,80.19
2018-09-30T05:43:48.492Z,80.47
2018-09-30T05:44:19.619Z,80.78
2018-09-30T05:44:50.773Z,80.22
2018-09-30T05:45:21.894Z,80.65
2018-09-30T05:45:53.073Z,79.95
2018-09-30T05:46:24.188Z,80.36
2018-09-30T05:46:55.351Z,79.38
2018-09-30T05:47:26.510Z,79.85
2018-09-30T05:47:57.639Z,79.51
2018-09-30T05:48:28.752Z,79.48
2018-09-30T05:48:59.885Z,80.12
2018-09-30T05:49:31.012Z,80.02
2018-09-30T05:50:02.156Z,79.93
2018-09-30T05:50:33.265Z,80.07
2018-09-30T05:51:04.446Z,80.33
2018-09-30T05:51:35.585Z,80.80
2018-09-30T05:52:06.730Z,79.85
2018-09-30T05:52:37.887Z,80.22
2018-09-30T05:53:08.995Z,80.63
2018-09-30T05:53:40.200Z,80.12
2018-09-30T05:54:11.297Z,80.44
2018-09-30T05:54:42.416Z,80.75
2018-09-30T05:55:13.532Z,80.70
2018-09-30T05:55:44.677Z,80.89
2018-09-30T05:56:15.817Z,81.16
2018-09-30T05:56:46.933Z,81.33
2018-09-30T05:57:18.057Z,81.58
2018-09-30T05:57:49.218Z,80.96
2018-09-30T05:58:20.345Z,80.01
2018-09-30T05:58:51.447Z,79.80
2018-09-30T05:59:22.591Z,80.03
2018-09-30T05:59:53.695Z,80.04
2018-09-30T06:00:24.814Z,80.56
2018-09-30T06:00:55.957Z,80.50
2018-09-30T06:01:27.081Z,80.08
2018-09-30T06:01:58.221Z,80.42
2018-09-30T06:02:29.349Z,80.47
2018-09-30T06:03:00.455Z,80.18
2018-09-30T06:03:31.567Z,80.50
2018-09-30T06:04:02.749Z,80.07
2018-09-30T06:04:33.868Z,80.39
2018-09-30T06:05:05.011Z,80.12
2018-09-30T06:05:36.119Z,79.92
2018-09-30T06:06:09.154Z,79.87
2018-09-30T06:06:40.273Z,80.36
2018-09-30T06:07:11.405Z,80.07
2018-09-30T06:07:42.526Z,80.51
2018-09-30T06:08:13.633Z,80.63
2018-09-30T06:08:44.783Z,80.55
2018-09-30T06:09:15.952Z,80.84
2018-09-30T06:09:47.037Z,80.44
2018-09-30T06:10:18.241Z,80.45
2018-09-30T06:10:49.359Z,81.21
2018-09-30T06:11:20.453Z,81.20
2018-09-30T06:11:51.599Z,81.53
2018-09-30T06:12:22.722Z,81.06
2018-09-30T06:12:53.848Z,81.19
2018-09-30T06:13:24.945Z,80.73
2018-09-30T06:13:56.172Z,81.11
2018-09-30T06:14:27.269Z,80.82
2018-09-30T06:14:58.423Z,80.66
2018-09-30T06:15:29.541Z,81.10
2018-09-30T06:16:00.812Z,81.01
2018-09-30T06:16:31.887Z,80.50
2018-09-30T06:17:03.072Z,80.43
2018-09-30T06:17:34.188Z,80.78
2018-09-30T06:18:05.299Z,78.12
2018-09-30T06:18:36.404Z,78.39
2018-09-30T06:19:07.562Z,78.39
2018-09-30T06:19:38.666Z,78.97
2018-09-30T06:20:09.797Z,79.41
2018-09-30T06:20:40.906Z,79.16
2018-09-30T06:21:12.076Z,79.11
2018-09-30T06:21:43.208Z,79.04
2018-09-30T06:22:14.390Z,79.41
2018-09-30T06:22:45.498Z,79.61
2018-09-30T06:23:16.593Z,79.11
2018-09-30T06:23:47.706Z,77.88
2018-09-30T06:24:18.856Z,78.63
2018-09-30T06:24:49.996Z,78.72
2018-09-30T06:25:21.118Z,79.55
2018-09-30T06:25:52.283Z,79.18
2018-09-30T06:26:23.394Z,79.72
2018-09-30T06:26:54.529Z,79.89
2018-09-30T06:27:25.633Z,79.73
2018-09-30T06:27:56.737Z,80.33
2018-09-30T06:28:27.836Z,79.67
2018-09-30T06:28:58.960Z,79.21
2018-09-30T06:29:30.108Z,78.97
2018-09-30T06:30:01.254Z,79.04
2018-09-30T06:30:32.361Z,79.29
2018-09-30T06:31:03.529Z,79.02
2018-09-30T06:31:34.711Z,78.51
2018-09-30T06:32:05.843Z,78.24
2018-09-30T06:32:36.941Z,78.48
2018-09-30T06:33:08.068Z,78.55
2018-09-30T06:33:39.218Z,78.22
2018-09-30T06:34:10.396Z,79.07
2018-09-30T06:34:42.152Z,79.17
2018-09-30T06:35:13.269Z,78.73
2018-09-30T06:35:44.371Z,79.16
2018-09-30T06:36:15.532Z,78.66
2018-09-30T06:36:46.650Z,78.88
2018-09-30T06:37:17.819Z,78.95
2018-09-30T06:37:48.908Z,79.12
2018-09-30T06:38:20.047Z,78.82
2018-09-30T06:38:51.202Z,79.53
2018-09-30T06:39:22.351Z,78.86
2018-09-30T06:39:53.461Z,79.33
2018-09-30T06:40:24.676Z,78.93
2018-09-30T06:40:55.789Z,79.26
2018-09-30T06:41:26.947Z,78.95